sensor_id;sensor_type;location;lat;lon;timestamp;P1;durP1;ratioP1;P2;durP2;ratioP2
67051;SDS011;53957;47.222;18.670;2022-09-17T00:00:14;4.55;;;2.55;;
67051;SDS011;53957;47.222;18.670;2022-09-17T00:03:18;3.10;;;2.80;;
67051;SDS011;53957;47.222;18.670;2022-09-17T00:06:21;2.67;;;2.47;;
67051;SDS011;53957;47.222;18.670;2022-09-17T00:09:26;2.97;;;2.75;;
67051;SDS011;53957;47.222;18.670;2022-09-17T00:12:30;3.17;;;2.72;;
67051;SDS011;53957;47.222;18.670;2022-09-17T00:15:38;3.40;;;2.67;;
67051;SDS011;53957;47.222;18.670;2022-09-17T00:18:43;4.25;;;2.97;;
67051;SDS011;53957;47.222;18.670;2022-09-17T00:21:46;2.78;;;2.53;;
67051;SDS011;53957;47.222;18.670;2022-09-17T00:24:48;3.15;;;2.37;;
67051;SDS011;53957;47.222;18.670;2022-09-17T00:27:51;4.03;;;3.45;;
67051;SDS011;53957;47.222;18.670;2022-09-17T00:30:54;6.62;;;3.28;;
67051;SDS011;53957;47.222;18.670;2022-09-17T00:33:57;3.80;;;2.62;;
67051;SDS011;53957;47.222;18.670;2022-09-17T00:37:01;3.08;;;2.58;;
67051;SDS011;53957;47.222;18.670;2022-09-17T00:40:04;3.87;;;2.87;;
67051;SDS011;53957;47.222;18.670;2022-09-17T00:43:10;2.95;;;2.42;;
67051;SDS011;53957;47.222;18.670;2022-09-17T00:46:30;3.10;;;2.80;;
67051;SDS011;53957;47.222;18.670;2022-09-17T00:49:40;2.78;;;2.62;;
67051;SDS011;53957;47.222;18.670;2022-09-17T00:52:44;2.60;;;2.40;;
67051;SDS011;53957;47.222;18.670;2022-09-17T00:55:54;7.65;;;3.70;;
67051;SDS011;53957;47.222;18.670;2022-09-17T00:59:03;6.05;;;2.95;;
67051;SDS011;53957;47.222;18.670;2022-09-17T01:02:06;3.45;;;2.50;;
67051;SDS011;53957;47.222;18.670;2022-09-17T01:05:10;5.07;;;2.65;;
67051;SDS011;53957;47.222;18.670;2022-09-17T01:08:21;2.95;;;2.65;;
67051;SDS011;53957;47.222;18.670;2022-09-17T01:11:52;4.22;;;2.90;;
67051;SDS011;53957;47.222;18.670;2022-09-17T01:15:04;2.75;;;2.55;;
67051;SDS011;53957;47.222;18.670;2022-09-17T01:22:02;3.33;;;3.03;;
67051;SDS011;53957;47.222;18.670;2022-09-17T01:28:26;5.75;;;2.75;;
67051;SDS011;53957;47.222;18.670;2022-09-17T01:31:45;5.43;;;2.85;;
67051;SDS011;53957;47.222;18.670;2022-09-17T01:35:00;3.42;;;2.72;;
67051;SDS011;53957;47.222;18.670;2022-09-17T01:38:12;7.00;;;2.80;;
67051;SDS011;53957;47.222;18.670;2022-09-17T01:42:28;3.25;;;2.90;;
67051;SDS011;53957;47.222;18.670;2022-09-17T01:45:24;3.37;;;2.62;;
67051;SDS011;53957;47.222;18.670;2022-09-17T01:48:30;3.33;;;2.70;;
67051;SDS011;53957;47.222;18.670;2022-09-17T01:51:38;2.78;;;2.58;;
67051;SDS011;53957;47.222;18.670;2022-09-17T01:54:48;3.33;;;2.75;;
67051;SDS011;53957;47.222;18.670;2022-09-17T01:57:56;6.05;;;3.00;;
67051;SDS011;53957;47.222;18.670;2022-09-17T02:01:08;3.35;;;2.70;;
67051;SDS011;53957;47.222;18.670;2022-09-17T02:04:19;3.00;;;2.70;;
67051;SDS011;53957;47.222;18.670;2022-09-17T02:07:28;3.25;;;2.95;;
67051;SDS011;53957;47.222;18.670;2022-09-17T02:10:39;3.15;;;2.85;;
67051;SDS011;53957;47.222;18.670;2022-09-17T02:16:57;3.58;;;2.58;;
67051;SDS011;53957;47.222;18.670;2022-09-17T02:20:07;2.85;;;2.60;;
67051;SDS011;53957;47.222;18.670;2022-09-17T02:23:21;2.97;;;2.72;;
67051;SDS011;53957;47.222;18.670;2022-09-17T02:29:40;2.85;;;2.65;;
67051;SDS011;53957;47.222;18.670;2022-09-17T02:32:45;3.53;;;2.67;;
67051;SDS011;53957;47.222;18.670;2022-09-17T02:35:47;4.05;;;3.20;;
67051;SDS011;53957;47.222;18.670;2022-09-17T02:38:57;2.87;;;2.47;;
67051;SDS011;53957;47.222;18.670;2022-09-17T02:55:41;4.55;;;2.85;;
67051;SDS011;53957;47.222;18.670;2022-09-17T02:59:02;2.50;;;2.40;;
67051;SDS011;53957;47.222;18.670;2022-09-17T03:02:12;3.03;;;2.83;;
67051;SDS011;53957;47.222;18.670;2022-09-17T03:05:21;2.85;;;2.65;;
67051;SDS011;53957;47.222;18.670;2022-09-17T03:08:28;2.80;;;2.60;;
67051;SDS011;53957;47.222;18.670;2022-09-17T03:11:36;5.12;;;2.70;;
67051;SDS011;53957;47.222;18.670;2022-09-17T03:14:39;2.90;;;2.70;;
67051;SDS011;53957;47.222;18.670;2022-09-17T03:17:42;4.03;;;2.80;;
67051;SDS011;53957;47.222;18.670;2022-09-17T03:20:45;2.75;;;2.40;;
67051;SDS011;53957;47.222;18.670;2022-09-17T03:23:48;2.97;;;2.78;;
67051;SDS011;53957;47.222;18.670;2022-09-17T03:26:51;3.45;;;3.15;;
67051;SDS011;53957;47.222;18.670;2022-09-17T03:29:54;3.00;;;2.80;;
67051;SDS011;53957;47.222;18.670;2022-09-17T03:32:57;3.20;;;2.90;;
67051;SDS011;53957;47.222;18.670;2022-09-17T03:36:00;5.00;;;3.25;;
67051;SDS011;53957;47.222;18.670;2022-09-17T03:39:03;6.85;;;3.05;;
67051;SDS011;53957;47.222;18.670;2022-09-17T03:42:06;3.87;;;2.85;;
67051;SDS011;53957;47.222;18.670;2022-09-17T03:45:09;3.17;;;2.92;;
67051;SDS011;53957;47.222;18.670;2022-09-17T03:48:12;4.00;;;3.35;;
67051;SDS011;53957;47.222;18.670;2022-09-17T03:51:14;3.30;;;3.00;;
67051;SDS011;53957;47.222;18.670;2022-09-17T03:54:17;2.97;;;2.78;;
67051;SDS011;53957;47.222;18.670;2022-09-17T03:57:20;5.43;;;3.42;;
67051;SDS011;53957;47.222;18.670;2022-09-17T04:00:24;4.35;;;3.15;;
67051;SDS011;53957;47.222;18.670;2022-09-17T04:03:29;3.85;;;3.50;;
67051;SDS011;53957;47.222;18.670;2022-09-17T04:06:31;7.00;;;4.15;;
67051;SDS011;53957;47.222;18.670;2022-09-17T04:09:35;4.75;;;4.35;;
67051;SDS011;53957;47.222;18.670;2022-09-17T04:12:37;5.53;;;3.92;;
67051;SDS011;53957;47.222;18.670;2022-09-17T04:15:44;4.85;;;4.35;;
67051;SDS011;53957;47.222;18.670;2022-09-17T04:18:47;5.87;;;4.20;;
67051;SDS011;53957;47.222;18.670;2022-09-17T04:21:50;8.02;;;4.70;;
67051;SDS011;53957;47.222;18.670;2022-09-17T04:24:54;5.53;;;3.95;;
67051;SDS011;53957;47.222;18.670;2022-09-17T04:28:21;4.20;;;3.80;;
67051;SDS011;53957;47.222;18.670;2022-09-17T04:31:25;4.37;;;3.72;;
67051;SDS011;53957;47.222;18.670;2022-09-17T04:34:28;5.68;;;3.17;;
67051;SDS011;53957;47.222;18.670;2022-09-17T04:37:32;4.10;;;3.22;;
67051;SDS011;53957;47.222;18.670;2022-09-17T04:40:36;3.37;;;3.08;;
67051;SDS011;53957;47.222;18.670;2022-09-17T04:43:49;6.60;;;3.45;;
67051;SDS011;53957;47.222;18.670;2022-09-17T04:46:53;3.62;;;3.30;;
67051;SDS011;53957;47.222;18.670;2022-09-17T04:49:57;8.05;;;3.15;;
67051;SDS011;53957;47.222;18.670;2022-09-17T04:53:00;3.72;;;3.08;;
67051;SDS011;53957;47.222;18.670;2022-09-17T04:56:03;3.85;;;3.20;;
67051;SDS011;53957;47.222;18.670;2022-09-17T04:59:06;5.78;;;2.95;;
67051;SDS011;53957;47.222;18.670;2022-09-17T05:02:09;3.10;;;2.90;;
67051;SDS011;53957;47.222;18.670;2022-09-17T05:05:21;2.95;;;2.75;;
67051;SDS011;53957;47.222;18.670;2022-09-17T05:08:26;3.10;;;2.80;;
67051;SDS011;53957;47.222;18.670;2022-09-17T05:11:29;3.03;;;2.72;;
67051;SDS011;53957;47.222;18.670;2022-09-17T05:14:32;4.62;;;2.70;;
67051;SDS011;53957;47.222;18.670;2022-09-17T05:17:35;3.08;;;2.87;;
67051;SDS011;53957;47.222;18.670;2022-09-17T05:20:58;4.32;;;2.85;;
67051;SDS011;53957;47.222;18.670;2022-09-17T05:24:01;3.37;;;2.80;;
67051;SDS011;53957;47.222;18.670;2022-09-17T05:27:05;2.70;;;2.50;;
67051;SDS011;53957;47.222;18.670;2022-09-17T05:30:08;2.87;;;2.67;;
67051;SDS011;53957;47.222;18.670;2022-09-17T05:36:23;2.55;;;2.35;;
67051;SDS011;53957;47.222;18.670;2022-09-17T05:39:27;2.97;;;2.75;;
67051;SDS011;53957;47.222;18.670;2022-09-17T05:42:30;4.00;;;2.58;;
67051;SDS011;53957;47.222;18.670;2022-09-17T05:45:33;3.28;;;2.50;;
67051;SDS011;53957;47.222;18.670;2022-09-17T05:48:37;2.83;;;2.62;;
67051;SDS011;53957;47.222;18.670;2022-09-17T05:54:56;2.45;;;2.35;;
67051;SDS011;53957;47.222;18.670;2022-09-17T05:57:59;4.65;;;2.67;;
67051;SDS011;53957;47.222;18.670;2022-09-17T06:01:29;3.15;;;2.53;;
67051;SDS011;53957;47.222;18.670;2022-09-17T06:04:38;2.92;;;2.60;;
67051;SDS011;53957;47.222;18.670;2022-09-17T06:07:43;2.87;;;2.67;;
67051;SDS011;53957;47.222;18.670;2022-09-17T06:14:52;8.43;;;2.60;;
67051;SDS011;53957;47.222;18.670;2022-09-17T06:18:25;3.08;;;2.87;;
67051;SDS011;53957;47.222;18.670;2022-09-17T06:24:52;2.70;;;2.50;;
67051;SDS011;53957;47.222;18.670;2022-09-17T06:27:55;3.22;;;2.92;;
67051;SDS011;53957;47.222;18.670;2022-09-17T06:31:58;4.03;;;2.75;;
67051;SDS011;53957;47.222;18.670;2022-09-17T06:35:08;3.53;;;2.73;;
67051;SDS011;53957;47.222;18.670;2022-09-17T06:38:33;2.55;;;2.35;;
67051;SDS011;53957;47.222;18.670;2022-09-17T06:41:57;4.32;;;2.30;;
67051;SDS011;53957;47.222;18.670;2022-09-17T06:48:18;5.60;;;2.67;;
67051;SDS011;53957;47.222;18.670;2022-09-17T06:51:21;2.70;;;2.50;;
67051;SDS011;53957;47.222;18.670;2022-09-17T06:54:24;4.03;;;2.90;;
67051;SDS011;53957;47.222;18.670;2022-09-17T06:57:27;5.07;;;2.60;;
67051;SDS011;53957;47.222;18.670;2022-09-17T07:00:30;2.65;;;2.45;;
67051;SDS011;53957;47.222;18.670;2022-09-17T07:03:33;6.35;;;2.50;;
67051;SDS011;53957;47.222;18.670;2022-09-17T07:06:36;2.62;;;2.42;;
67051;SDS011;53957;47.222;18.670;2022-09-17T07:09:39;2.42;;;2.22;;
67051;SDS011;53957;47.222;18.670;2022-09-17T07:12:42;3.45;;;2.55;;
67051;SDS011;53957;47.222;18.670;2022-09-17T07:15:56;3.30;;;3.00;;
67051;SDS011;53957;47.222;18.670;2022-09-17T07:19:22;3.22;;;2.55;;
67051;SDS011;53957;47.222;18.670;2022-09-17T07:22:25;2.60;;;2.40;;
67051;SDS011;53957;47.222;18.670;2022-09-17T07:25:28;2.40;;;2.30;;
67051;SDS011;53957;47.222;18.670;2022-09-17T07:28:31;2.40;;;2.20;;
67051;SDS011;53957;47.222;18.670;2022-09-17T07:31:34;2.12;;;2.03;;
67051;SDS011;53957;47.222;18.670;2022-09-17T07:34:37;2.28;;;2.12;;
67051;SDS011;53957;47.222;18.670;2022-09-17T07:37:42;2.17;;;2.08;;
67051;SDS011;53957;47.222;18.670;2022-09-17T07:40:57;3.55;;;3.25;;
67051;SDS011;53957;47.222;18.670;2022-09-17T07:44:01;3.35;;;2.20;;
67051;SDS011;53957;47.222;18.670;2022-09-17T07:47:21;5.47;;;2.10;;
67051;SDS011;53957;47.222;18.670;2022-09-17T07:51:24;4.60;;;2.00;;
67051;SDS011;53957;47.222;18.670;2022-09-17T08:10:48;2.45;;;2.10;;
67051;SDS011;53957;47.222;18.670;2022-09-17T08:14:16;6.30;;;2.10;;
67051;SDS011;53957;47.222;18.670;2022-09-17T08:17:29;3.75;;;2.10;;
67051;SDS011;53957;47.222;18.670;2022-09-17T08:21:16;1.90;;;1.80;;
67051;SDS011;53957;47.222;18.670;2022-09-17T08:24:49;2.28;;;2.10;;
67051;SDS011;53957;47.222;18.670;2022-09-17T09:07:09;2.35;;;1.70;;
67051;SDS011;53957;47.222;18.670;2022-09-17T09:10:45;5.22;;;2.37;;
67051;SDS011;53957;47.222;18.670;2022-09-17T09:13:55;3.15;;;2.30;;
67051;SDS011;53957;47.222;18.670;2022-09-17T09:17:07;2.37;;;2.10;;
67051;SDS011;53957;47.222;18.670;2022-09-17T09:20:39;2.03;;;1.83;;
67051;SDS011;53957;47.222;18.670;2022-09-17T09:27:41;2.10;;;1.92;;
67051;SDS011;53957;47.222;18.670;2022-09-17T09:35:02;2.05;;;1.90;;
67051;SDS011;53957;47.222;18.670;2022-09-17T09:38:25;2.37;;;1.92;;
67051;SDS011;53957;47.222;18.670;2022-09-17T10:01:14;2.08;;;1.87;;
67051;SDS011;53957;47.222;18.670;2022-09-17T10:04:26;4.40;;;1.60;;
67051;SDS011;53957;47.222;18.670;2022-09-17T10:07:30;4.20;;;1.80;;
67051;SDS011;53957;47.222;18.670;2022-09-17T10:10:36;2.33;;;1.90;;
67051;SDS011;53957;47.222;18.670;2022-09-17T10:14:14;1.87;;;1.67;;
67051;SDS011;53957;47.222;18.670;2022-09-17T10:17:25;1.80;;;1.70;;
67051;SDS011;53957;47.222;18.670;2022-09-17T10:20:50;4.00;;;1.70;;
67051;SDS011;53957;47.222;18.670;2022-09-17T10:24:04;2.35;;;1.75;;
67051;SDS011;53957;47.222;18.670;2022-09-17T10:27:23;1.77;;;1.67;;
67051;SDS011;53957;47.222;18.670;2022-09-17T10:30:30;2.78;;;1.92;;
67051;SDS011;53957;47.222;18.670;2022-09-17T10:33:34;1.90;;;1.80;;
67051;SDS011;53957;47.222;18.670;2022-09-17T11:11:17;2.40;;;2.20;;
67051;SDS011;53957;47.222;18.670;2022-09-17T11:18:44;7.22;;;1.75;;
67051;SDS011;53957;47.222;18.670;2022-09-17T11:29:54;2.10;;;1.90;;
67051;SDS011;53957;47.222;18.670;2022-09-17T12:19:18;3.87;;;1.15;;
67051;SDS011;53957;47.222;18.670;2022-09-17T12:50:18;1.23;;;1.10;;
67051;SDS011;53957;47.222;18.670;2022-09-17T12:54:44;2.42;;;1.35;;
67051;SDS011;53957;47.222;18.670;2022-09-17T14:17:06;1.37;;;1.27;;
67051;SDS011;53957;47.222;18.670;2022-09-17T14:20:11;2.47;;;1.20;;
67051;SDS011;53957;47.222;18.670;2022-09-17T14:23:14;1.52;;;1.33;;
67051;SDS011;53957;47.222;18.670;2022-09-17T14:26:27;1.20;;;1.20;;
67051;SDS011;53957;47.222;18.670;2022-09-17T14:33:27;1.85;;;1.20;;
67051;SDS011;53957;47.222;18.670;2022-09-17T14:36:34;4.20;;;2.00;;
67051;SDS011;53957;47.222;18.670;2022-09-17T14:39:54;1.25;;;1.25;;
67051;SDS011;53957;47.222;18.670;2022-09-17T14:42:58;2.75;;;1.75;;
67051;SDS011;53957;47.222;18.670;2022-09-17T14:46:01;1.20;;;1.20;;
67051;SDS011;53957;47.222;18.670;2022-09-17T14:52:29;6.35;;;1.85;;
67051;SDS011;53957;47.222;18.670;2022-09-17T14:55:39;1.52;;;1.40;;
67051;SDS011;53957;47.222;18.670;2022-09-17T14:58:53;4.28;;;1.50;;
67051;SDS011;53957;47.222;18.670;2022-09-17T15:01:59;1.92;;;1.50;;
67051;SDS011;53957;47.222;18.670;2022-09-17T15:05:29;2.10;;;1.35;;
67051;SDS011;53957;47.222;18.670;2022-09-17T15:08:43;1.58;;;1.30;;
67051;SDS011;53957;47.222;18.670;2022-09-17T15:11:47;3.35;;;1.30;;
67051;SDS011;53957;47.222;18.670;2022-09-17T15:14:57;1.50;;;1.40;;
67051;SDS011;53957;47.222;18.670;2022-09-17T15:18:06;5.68;;;1.65;;
67051;SDS011;53957;47.222;18.670;2022-09-17T15:28:10;7.15;;;1.50;;
67051;SDS011;53957;47.222;18.670;2022-09-17T15:31:25;2.30;;;1.25;;
67051;SDS011;53957;47.222;18.670;2022-09-17T15:38:25;2.50;;;1.37;;
67051;SDS011;53957;47.222;18.670;2022-09-17T15:41:33;1.70;;;1.60;;
67051;SDS011;53957;47.222;18.670;2022-09-17T15:45:18;3.28;;;1.40;;
67051;SDS011;53957;47.222;18.670;2022-09-17T15:48:31;2.72;;;1.37;;
67051;SDS011;53957;47.222;18.670;2022-09-17T15:51:41;1.30;;;1.20;;
67051;SDS011;53957;47.222;18.670;2022-09-17T15:54:44;2.87;;;1.42;;
67051;SDS011;53957;47.222;18.670;2022-09-17T15:57:47;4.10;;;1.30;;
67051;SDS011;53957;47.222;18.670;2022-09-17T16:04:39;1.98;;;1.15;;
67051;SDS011;53957;47.222;18.670;2022-09-17T16:07:45;2.17;;;1.33;;
67051;SDS011;53957;47.222;18.670;2022-09-17T16:10:50;3.58;;;1.33;;
67051;SDS011;53957;47.222;18.670;2022-09-17T16:35:58;1.33;;;1.20;;
67051;SDS011;53957;47.222;18.670;2022-09-17T16:39:02;1.00;;;1.00;;
67051;SDS011;53957;47.222;18.670;2022-09-17T16:42:06;1.27;;;1.10;;
67051;SDS011;53957;47.222;18.670;2022-09-17T16:45:09;1.48;;;1.23;;
67051;SDS011;53957;47.222;18.670;2022-09-17T16:48:13;1.42;;;1.33;;
67051;SDS011;53957;47.222;18.670;2022-09-17T16:51:17;1.27;;;1.17;;
67051;SDS011;53957;47.222;18.670;2022-09-17T16:54:21;1.27;;;1.20;;
67051;SDS011;53957;47.222;18.670;2022-09-17T16:57:24;1.30;;;1.20;;
67051;SDS011;53957;47.222;18.670;2022-09-17T17:00:29;1.20;;;1.10;;
67051;SDS011;53957;47.222;18.670;2022-09-17T17:03:32;1.45;;;1.35;;
67051;SDS011;53957;47.222;18.670;2022-09-17T17:06:35;2.87;;;1.40;;
67051;SDS011;53957;47.222;18.670;2022-09-17T17:09:47;2.33;;;1.33;;
67051;SDS011;53957;47.222;18.670;2022-09-17T17:12:51;1.90;;;1.20;;
67051;SDS011;53957;47.222;18.670;2022-09-17T17:15:55;2.95;;;1.37;;
67051;SDS011;53957;47.222;18.670;2022-09-17T17:19:17;1.52;;;1.30;;
67051;SDS011;53957;47.222;18.670;2022-09-17T17:22:23;2.53;;;1.35;;
67051;SDS011;53957;47.222;18.670;2022-09-17T17:25:35;2.33;;;1.95;;
67051;SDS011;53957;47.222;18.670;2022-09-17T17:28:38;1.50;;;1.40;;
67051;SDS011;53957;47.222;18.670;2022-09-17T17:31:42;1.50;;;1.40;;
67051;SDS011;53957;47.222;18.670;2022-09-17T17:34:45;1.58;;;1.48;;
67051;SDS011;53957;47.222;18.670;2022-09-17T17:37:48;1.60;;;1.30;;
67051;SDS011;53957;47.222;18.670;2022-09-17T17:41:11;2.87;;;1.60;;
67051;SDS011;53957;47.222;18.670;2022-09-17T17:44:16;5.28;;;2.33;;
67051;SDS011;53957;47.222;18.670;2022-09-17T17:47:19;3.33;;;1.55;;
67051;SDS011;53957;47.222;18.670;2022-09-17T17:54:01;1.67;;;1.23;;
67051;SDS011;53957;47.222;18.670;2022-09-17T17:57:08;1.30;;;1.17;;
67051;SDS011;53957;47.222;18.670;2022-09-17T18:00:38;3.17;;;1.50;;
67051;SDS011;53957;47.222;18.670;2022-09-17T18:03:57;2.80;;;2.00;;
67051;SDS011;53957;47.222;18.670;2022-09-17T18:07:26;2.47;;;1.60;;
67051;SDS011;53957;47.222;18.670;2022-09-17T18:10:32;1.83;;;1.48;;
67051;SDS011;53957;47.222;18.670;2022-09-17T18:13:35;1.40;;;1.30;;
67051;SDS011;53957;47.222;18.670;2022-09-17T18:16:40;1.20;;;1.20;;
67051;SDS011;53957;47.222;18.670;2022-09-17T18:19:43;1.20;;;1.10;;
67051;SDS011;53957;47.222;18.670;2022-09-17T18:23:04;1.80;;;1.70;;
67051;SDS011;53957;47.222;18.670;2022-09-17T18:26:09;4.68;;;2.78;;
67051;SDS011;53957;47.222;18.670;2022-09-17T18:29:13;2.80;;;1.50;;
67051;SDS011;53957;47.222;18.670;2022-09-17T18:32:17;1.08;;;1.08;;
67051;SDS011;53957;47.222;18.670;2022-09-17T18:35:20;2.45;;;1.60;;
67051;SDS011;53957;47.222;18.670;2022-09-17T18:38:25;1.40;;;1.30;;
67051;SDS011;53957;47.222;18.670;2022-09-17T18:41:29;1.50;;;1.40;;
67051;SDS011;53957;47.222;18.670;2022-09-17T18:44:38;1.83;;;1.10;;
67051;SDS011;53957;47.222;18.670;2022-09-17T18:47:43;3.65;;;1.60;;
67051;SDS011;53957;47.222;18.670;2022-09-17T18:51:06;2.17;;;1.30;;
67051;SDS011;53957;47.222;18.670;2022-09-17T18:54:11;1.08;;;1.08;;
67051;SDS011;53957;47.222;18.670;2022-09-17T18:57:14;1.40;;;1.30;;
67051;SDS011;53957;47.222;18.670;2022-09-17T19:00:18;3.40;;;1.23;;
67051;SDS011;53957;47.222;18.670;2022-09-17T19:03:22;5.60;;;1.40;;
67051;SDS011;53957;47.222;18.670;2022-09-17T19:06:27;2.87;;;1.35;;
67051;SDS011;53957;47.222;18.670;2022-09-17T19:09:31;2.30;;;1.33;;
67051;SDS011;53957;47.222;18.670;2022-09-17T19:12:35;1.00;;;1.00;;
67051;SDS011;53957;47.222;18.670;2022-09-17T19:15:37;3.25;;;2.22;;
67051;SDS011;53957;47.222;18.670;2022-09-17T19:18:41;1.83;;;1.50;;
67051;SDS011;53957;47.222;18.670;2022-09-17T19:21:44;2.08;;;1.52;;
67051;SDS011;53957;47.222;18.670;2022-09-17T19:24:47;2.00;;;1.80;;
67051;SDS011;53957;47.222;18.670;2022-09-17T19:27:50;1.87;;;1.58;;
67051;SDS011;53957;47.222;18.670;2022-09-17T19:30:58;9.30;;;1.60;;
67051;SDS011;53957;47.222;18.670;2022-09-17T19:34:00;1.35;;;1.30;;
67051;SDS011;53957;47.222;18.670;2022-09-17T19:37:04;1.70;;;1.60;;
67051;SDS011;53957;47.222;18.670;2022-09-17T19:40:09;1.75;;;1.35;;
67051;SDS011;53957;47.222;18.670;2022-09-17T19:43:12;1.27;;;1.27;;
67051;SDS011;53957;47.222;18.670;2022-09-17T19:46:17;1.23;;;1.20;;
67051;SDS011;53957;47.222;18.670;2022-09-17T19:49:32;1.50;;;1.27;;
67051;SDS011;53957;47.222;18.670;2022-09-17T19:52:35;1.40;;;1.30;;
67051;SDS011;53957;47.222;18.670;2022-09-17T19:55:38;1.37;;;1.27;;
67051;SDS011;53957;47.222;18.670;2022-09-17T19:58:41;1.20;;;1.10;;
67051;SDS011;53957;47.222;18.670;2022-09-17T20:01:44;1.00;;;1.00;;
67051;SDS011;53957;47.222;18.670;2022-09-17T20:04:51;1.10;;;1.10;;
67051;SDS011;53957;47.222;18.670;2022-09-17T20:07:54;1.35;;;1.25;;
67051;SDS011;53957;47.222;18.670;2022-09-17T20:11:07;1.40;;;1.30;;
67051;SDS011;53957;47.222;18.670;2022-09-17T20:14:12;1.08;;;1.08;;
67051;SDS011;53957;47.222;18.670;2022-09-17T20:17:19;5.20;;;1.08;;
67051;SDS011;53957;47.222;18.670;2022-09-17T20:20:22;1.37;;;1.20;;
67051;SDS011;53957;47.222;18.670;2022-09-17T20:23:49;4.57;;;1.40;;
67051;SDS011;53957;47.222;18.670;2022-09-17T20:26:53;1.30;;;1.30;;
67051;SDS011;53957;47.222;18.670;2022-09-17T20:29:59;1.50;;;1.40;;
67051;SDS011;53957;47.222;18.670;2022-09-17T20:33:03;1.33;;;1.27;;
67051;SDS011;53957;47.222;18.670;2022-09-17T20:36:09;1.35;;;1.33;;
67051;SDS011;53957;47.222;18.670;2022-09-17T20:39:19;1.30;;;1.30;;
67051;SDS011;53957;47.222;18.670;2022-09-17T20:42:24;1.35;;;1.30;;
67051;SDS011;53957;47.222;18.670;2022-09-17T20:45:27;1.73;;;1.20;;
67051;SDS011;53957;47.222;18.670;2022-09-17T20:48:31;1.30;;;1.30;;
67051;SDS011;53957;47.222;18.670;2022-09-17T20:51:35;1.40;;;1.30;;
67051;SDS011;53957;47.222;18.670;2022-09-17T20:54:59;1.12;;;1.12;;
67051;SDS011;53957;47.222;18.670;2022-09-17T20:58:02;1.23;;;1.23;;
67051;SDS011;53957;47.222;18.670;2022-09-17T21:04:23;1.00;;;1.00;;
67051;SDS011;53957;47.222;18.670;2022-09-17T21:07:30;1.50;;;1.40;;
67051;SDS011;53957;47.222;18.670;2022-09-17T21:10:40;1.00;;;1.00;;
67051;SDS011;53957;47.222;18.670;2022-09-17T21:13:44;1.00;;;1.00;;
67051;SDS011;53957;47.222;18.670;2022-09-17T21:17:05;1.05;;;1.05;;
67051;SDS011;53957;47.222;18.670;2022-09-17T21:20:09;1.00;;;1.00;;
67051;SDS011;53957;47.222;18.670;2022-09-17T21:23:13;0.95;;;0.95;;
67051;SDS011;53957;47.222;18.670;2022-09-17T21:26:17;1.25;;;1.10;;
67051;SDS011;53957;47.222;18.670;2022-09-17T21:29:22;1.27;;;1.17;;
67051;SDS011;53957;47.222;18.670;2022-09-17T21:32:44;1.20;;;1.10;;
67051;SDS011;53957;47.222;18.670;2022-09-17T21:35:47;1.10;;;1.10;;
67051;SDS011;53957;47.222;18.670;2022-09-17T21:38:59;1.20;;;1.10;;
67051;SDS011;53957;47.222;18.670;2022-09-17T21:42:25;1.08;;;1.00;;
67051;SDS011;53957;47.222;18.670;2022-09-17T21:45:35;1.10;;;1.10;;
67051;SDS011;53957;47.222;18.670;2022-09-17T21:48:41;1.23;;;1.20;;
67051;SDS011;53957;47.222;18.670;2022-09-17T21:51:56;1.10;;;1.10;;
67051;SDS011;53957;47.222;18.670;2022-09-17T21:55:01;1.23;;;1.12;;
67051;SDS011;53957;47.222;18.670;2022-09-17T21:58:06;1.00;;;1.00;;
67051;SDS011;53957;47.222;18.670;2022-09-17T22:01:15;1.33;;;1.10;;
67051;SDS011;53957;47.222;18.670;2022-09-17T22:04:23;7.10;;;2.78;;
67051;SDS011;53957;47.222;18.670;2022-09-17T22:07:46;1.20;;;1.20;;
67051;SDS011;53957;47.222;18.670;2022-09-17T22:10:58;1.40;;;1.30;;
67051;SDS011;53957;47.222;18.670;2022-09-17T22:14:10;1.65;;;1.50;;
67051;SDS011;53957;47.222;18.670;2022-09-17T22:17:16;1.40;;;1.40;;
67051;SDS011;53957;47.222;18.670;2022-09-17T22:20:20;5.47;;;1.48;;
67051;SDS011;53957;47.222;18.670;2022-09-17T22:23:28;1.73;;;1.62;;
67051;SDS011;53957;47.222;18.670;2022-09-17T22:26:53;3.40;;;1.73;;
67051;SDS011;53957;47.222;18.670;2022-09-17T22:30:02;1.90;;;1.80;;
67051;SDS011;53957;47.222;18.670;2022-09-17T22:33:25;1.62;;;1.62;;
67051;SDS011;53957;47.222;18.670;2022-09-17T22:36:28;1.92;;;1.83;;
67051;SDS011;53957;47.222;18.670;2022-09-17T22:39:32;1.70;;;1.60;;
67051;SDS011;53957;47.222;18.670;2022-09-17T22:42:35;1.70;;;1.60;;
67051;SDS011;53957;47.222;18.670;2022-09-17T22:45:42;1.87;;;1.70;;
67051;SDS011;53957;47.222;18.670;2022-09-17T22:48:45;1.40;;;1.40;;
67051;SDS011;53957;47.222;18.670;2022-09-17T22:51:49;1.87;;;1.77;;
67051;SDS011;53957;47.222;18.670;2022-09-17T22:54:52;1.70;;;1.60;;
67051;SDS011;53957;47.222;18.670;2022-09-17T22:57:54;1.95;;;1.80;;
67051;SDS011;53957;47.222;18.670;2022-09-17T23:01:09;1.62;;;1.58;;
67051;SDS011;53957;47.222;18.670;2022-09-17T23:04:14;1.20;;;1.20;;
67051;SDS011;53957;47.222;18.670;2022-09-17T23:07:17;1.40;;;1.30;;
67051;SDS011;53957;47.222;18.670;2022-09-17T23:10:22;1.80;;;1.48;;
67051;SDS011;53957;47.222;18.670;2022-09-17T23:13:25;1.52;;;1.42;;
67051;SDS011;53957;47.222;18.670;2022-09-17T23:16:39;1.37;;;1.27;;
67051;SDS011;53957;47.222;18.670;2022-09-17T23:19:47;1.35;;;1.23;;
67051;SDS011;53957;47.222;18.670;2022-09-17T23:23:10;2.67;;;1.40;;
67051;SDS011;53957;47.222;18.670;2022-09-17T23:26:18;1.60;;;1.40;;
67051;SDS011;53957;47.222;18.670;2022-09-17T23:29:22;1.50;;;1.40;;
67051;SDS011;53957;47.222;18.670;2022-09-17T23:32:25;1.90;;;1.60;;
67051;SDS011;53957;47.222;18.670;2022-09-17T23:35:28;2.03;;;1.80;;
67051;SDS011;53957;47.222;18.670;2022-09-17T23:38:31;2.10;;;1.42;;
67051;SDS011;53957;47.222;18.670;2022-09-17T23:41:37;1.40;;;1.40;;
67051;SDS011;53957;47.222;18.670;2022-09-17T23:44:42;1.58;;;1.48;;
67051;SDS011;53957;47.222;18.670;2022-09-17T23:47:44;1.58;;;1.48;;
67051;SDS011;53957;47.222;18.670;2022-09-17T23:50:47;1.95;;;1.77;;
67051;SDS011;53957;47.222;18.670;2022-09-17T23:53:52;1.65;;;1.55;;
67051;SDS011;53957;47.222;18.670;2022-09-17T23:56:56;1.50;;;1.40;;
67051;SDS011;53957;47.222;18.670;2022-09-17T23:59:59;2.17;;;1.23;;
